Philadelphia, PA

3:27 PM EDT on March 28, 2015 (GMT -0400)
Erdenheim | | Change Station
CLOSE
Current Station
Personal Weather Station
Location: Erdenheim, PA
Elevation: 220 ft
Nearby Weather Stations

Elev 220 ft 40.09 °N, 75.21 °W | Updated 32 seconds ago

Mostly Cloudy
Mostly Cloudy
37.6 °F
Feels Like 31 °F
N
10.0
Wind Variable Wind from NW
Gusts 10.0 mph

Today
High -- | Low -- °F
--% Chance of Precip.
Yesterday
High -- | Low -- °F
Precip. -- in
6:51 AM 7:20 PM
Waxing Gibbous, 64% visible
Pressure 29.89 in
Visibility 10.0 miles
Clouds Scattered Clouds 5000 ft
Windchill 31 °F
Dew Point 14 °F
Humidity 37%
Rainfall 0.00 in
Snow Depth Not available.
UV 0.0 out of 12
Pollen 8.90 out of 12
Air Quality Not available.
Flu Activity Not available.
METAR KLOM 281915Z AUTO 31007G17KT 270V330 10SM SCT050 03/M07 A2989 RMK AO1

More Conditions Fewer Conditions

Pressure 29.89 in
Visibility 10.0 miles
Clouds Scattered Clouds 5000 ft
Windchill 31 °F
Dew Point 14 °F
Humidity 37%
Rainfall 0.00 in
Snow Depth Not available.
UV 0.0 out of 12
Pollen 8.90 out of 12
Air Quality Not available.
Flu Activity Not available.
METAR KLOM 281915Z AUTO 31007G17KT 270V330 10SM SCT050 03/M07 A2989 RMK AO1

More Conditions Fewer Conditions

10-Day Weather Forecast

Almanac

Astronomy

Mar. 28, 2015 Rise Set
Actual Time
Civil Twilight
Nautical Twilight
Astronomical Twilight
Moon
Length of Visible Light
Length of Day
Tomorrow will be .
, % of the Moon is Illuminated

Today's Extremes

State Highs State Lows

Community

WunderPhotos

Upload Photos

1,809,071 photos uploaded!

WunderBlogs® & News

Nearby

Air Quality

  Air Quality AQ Index Pollutant
Not available.

Snow Depth

Station Depth Elevation

Earthquake Activity

City Distance Mag. Time & Date
Minimum magnitude displayed is 2.5.

Coastal Water Temperatures

Place Temperature

Stations

Nearby Weather Stations

Station Location Temp. Windchill Dew Point Humidity Wind Precip. Elev Updated Type